createdAt,value
2023-04-29T12:19:46.942Z,10.55
2023-04-29T12:20:49.189Z,16.88
2023-04-29T12:21:52.194Z,13.07
2023-04-29T12:22:53.784Z,21.23
2023-04-29T12:24:00.195Z,17.40
2023-04-29T12:25:05.597Z,13.90
2023-04-29T12:26:07.856Z,11.67
2023-04-29T12:27:10.504Z,17.70
2023-04-29T12:28:13.299Z,9.07
2023-04-29T12:29:15.217Z,10.33
2023-04-29T12:30:16.979Z,10.30
2023-04-29T12:31:18.655Z,9.63
2023-04-29T12:32:25.169Z,10.20
2023-04-29T12:33:29.051Z,9.67
2023-04-29T12:34:31.830Z,7.50
2023-04-29T12:35:33.588Z,8.13
2023-04-29T12:36:37.227Z,7.67
2023-04-29T12:37:38.813Z,8.73
2023-04-29T12:38:42.516Z,9.70
2023-04-29T12:39:44.655Z,7.30
2023-04-29T12:40:46.277Z,8.80
2023-04-29T12:41:47.856Z,10.00
2023-04-29T12:42:49.506Z,9.37
2023-04-29T12:43:51.297Z,8.47
2023-04-29T12:44:53.084Z,9.60
2023-04-29T12:46:05.009Z,8.60
2023-04-29T12:47:09.891Z,7.00
2023-04-29T12:48:22.094Z,8.00
2023-04-29T12:49:28.601Z,10.53
2023-04-29T12:50:32.977Z,8.83
2023-04-29T12:51:36.636Z,10.77
2023-04-29T12:52:38.207Z,11.50
2023-04-29T12:53:39.938Z,11.17
2023-04-29T12:54:43.321Z,9.27
2023-04-29T12:55:44.964Z,11.27
2023-04-29T12:56:48.513Z,11.07
2023-04-29T12:57:50.938Z,17.30
2023-04-29T12:58:53.064Z,12.40
2023-04-29T12:59:55.065Z,10.50
2023-04-29T13:00:57.633Z,10.23
2023-04-29T13:01:59.367Z,15.77
2023-04-29T13:03:01.789Z,11.63
2023-04-29T13:04:05.403Z,14.87
2023-04-29T13:05:08.032Z,10.03
2023-04-29T13:06:09.676Z,11.37
2023-04-29T13:07:12.222Z,10.63
2023-04-29T13:08:15.055Z,12.53
2023-04-29T13:09:18.892Z,13.50
2023-04-29T13:10:21.064Z,15.03
2023-04-29T13:11:22.722Z,11.80
2023-04-29T13:12:24.557Z,21.33
2023-04-29T13:13:26.890Z,14.10
2023-04-29T13:14:28.454Z,14.93
2023-04-29T13:15:30.092Z,12.13
2023-04-29T13:16:33.098Z,13.73
2023-04-29T13:17:34.886Z,8.63
2023-04-29T13:18:36.945Z,13.70
2023-04-29T13:19:49.529Z,15.20
2023-04-29T13:20:53.703Z,12.33
2023-04-29T13:21:55.483Z,13.00
2023-04-29T13:22:57.345Z,13.00
2023-04-29T13:23:58.928Z,13.30
2023-04-29T13:25:00.743Z,10.70
2023-04-29T13:26:02.368Z,9.37
2023-04-29T13:27:04.131Z,13.20
2023-04-29T13:28:05.876Z,10.80
2023-04-29T13:29:07.534Z,10.53
2023-04-29T13:30:09.614Z,11.90
2023-04-29T13:31:11.288Z,13.60
2023-04-29T13:32:13.019Z,11.83
2023-04-29T13:33:14.758Z,12.07
2023-04-29T13:34:16.484Z,12.13
2023-04-29T13:35:18.287Z,13.60
2023-04-29T13:36:19.844Z,14.27
2023-04-29T13:37:21.483Z,10.00
2023-04-29T13:38:23.120Z,11.90
2023-04-29T13:39:25.141Z,12.80
2023-04-29T13:40:28.255Z,12.10
2023-04-29T13:41:33.620Z,14.83
2023-04-29T13:42:45.280Z,11.23
2023-04-29T13:43:51.119Z,13.00
2023-04-29T13:44:53.711Z,13.47
2023-04-29T13:45:55.969Z,12.33
2023-04-29T13:46:57.667Z,16.13
2023-04-29T13:48:09.487Z,13.10
2023-04-29T13:49:42.300Z,14.57
2023-04-29T13:52:30.618Z,11.43
2023-04-29T13:54:53.354Z,12.00
2023-04-29T13:57:37.185Z,15.70
2023-04-29T14:00:31.802Z,17.20
2023-04-29T14:02:39.810Z,13.57
2023-04-29T14:03:41.906Z,11.60
2023-04-29T14:04:43.584Z,15.60
2023-04-29T14:05:45.539Z,15.67
2023-04-29T14:06:47.283Z,18.00
2023-04-29T14:07:49.022Z,15.87
2023-04-29T14:08:50.905Z,18.13
2023-04-29T14:09:52.470Z,19.23
2023-04-29T14:10:54.266Z,20.17
2023-04-29T14:11:56.384Z,13.30
2023-04-29T14:12:58.203Z,13.27
2023-04-29T14:13:59.837Z,14.90
2023-04-29T14:15:01.495Z,14.87
2023-04-29T14:16:06.868Z,18.13
2023-04-29T14:17:08.952Z,14.43
2023-04-29T14:18:11.667Z,15.33
2023-04-29T14:19:13.341Z,15.23
2023-04-29T14:20:15.086Z,16.50
2023-04-29T14:21:16.821Z,15.47
2023-04-29T14:22:18.417Z,19.00
2023-04-29T14:23:20.108Z,16.30
2023-04-29T14:24:22.456Z,19.63
2023-04-29T14:25:24.844Z,17.20
2023-04-29T14:26:28.728Z,18.40
2023-04-29T14:27:30.702Z,17.47
2023-04-29T14:28:32.470Z,19.33
2023-04-29T14:29:34.036Z,18.47
2023-04-29T14:30:35.721Z,18.80
2023-04-29T14:31:40.142Z,15.97
2023-04-29T14:32:41.795Z,15.73
2023-04-29T14:33:44.446Z,17.97
2023-04-29T14:34:46.042Z,17.33
2023-04-29T14:35:47.594Z,16.47
2023-04-29T14:36:49.250Z,16.83
2023-04-29T14:37:50.892Z,16.00
2023-04-29T14:38:52.846Z,16.73
2023-04-29T14:39:54.390Z,14.30
2023-04-29T14:40:55.929Z,16.43
2023-04-29T14:41:57.517Z,15.90
2023-04-29T14:42:59.102Z,15.23
2023-04-29T14:44:00.928Z,16.57
2023-04-29T14:45:02.618Z,14.57
2023-04-29T14:46:04.992Z,17.53
2023-04-29T14:47:06.849Z,17.00
2023-04-29T14:48:09.651Z,15.80
2023-04-29T14:49:11.286Z,17.57
2023-04-29T14:50:12.864Z,12.20
2023-04-29T14:51:14.474Z,16.23
2023-04-29T14:52:16.104Z,20.50
2023-04-29T14:53:17.918Z,14.70
2023-04-29T14:54:19.579Z,13.93
2023-04-29T14:55:21.277Z,14.67
2023-04-29T14:56:22.896Z,18.70
2023-04-29T14:57:24.451Z,15.07
2023-04-29T14:58:26.136Z,17.90
2023-04-29T14:59:30.056Z,15.10
2023-04-29T15:00:31.860Z,16.20
2023-04-29T15:01:34.293Z,16.07
2023-04-29T15:02:36.066Z,15.00
2023-04-29T15:03:43.495Z,16.03
2023-04-29T15:04:46.353Z,17.60
2023-04-29T15:05:50.598Z,18.30
2023-04-29T15:06:52.251Z,16.97
2023-04-29T15:07:53.839Z,15.00
2023-04-29T15:08:56.186Z,15.00
2023-04-29T15:09:57.746Z,18.00
2023-04-29T15:10:59.941Z,17.00
2023-04-29T15:12:02.034Z,19.10
2023-04-29T15:13:03.643Z,19.60
2023-04-29T15:14:06.524Z,17.83
2023-04-29T15:15:08.889Z,15.37
2023-04-29T15:16:10.700Z,16.50
2023-04-29T15:17:12.533Z,19.33
2023-04-29T15:18:14.252Z,20.13
2023-04-29T15:19:15.974Z,36.07
2023-04-29T15:20:17.788Z,25.10
2023-04-29T15:21:19.367Z,19.63
2023-04-29T15:22:20.996Z,18.90
2023-04-29T15:23:23.183Z,18.43
2023-04-29T15:24:24.960Z,20.67
2023-04-29T15:25:27.600Z,16.77
2023-04-29T15:26:29.435Z,16.93
2023-04-29T15:27:31.074Z,18.60
2023-04-29T15:28:32.684Z,17.17
2023-04-29T15:29:37.161Z,19.40
2023-04-29T15:30:38.790Z,18.07
2023-04-29T15:31:40.492Z,24.10
2023-04-29T15:32:42.132Z,24.00
2023-04-29T15:33:43.780Z,22.10
2023-04-29T15:34:45.730Z,20.33
2023-04-29T15:35:47.291Z,21.50
2023-04-29T15:36:49.804Z,26.40
2023-04-29T15:37:51.405Z,23.93
2023-04-29T15:38:52.987Z,21.10
2023-04-29T15:39:55.884Z,17.90
2023-04-29T15:41:00.886Z,16.67
2023-04-29T15:42:03.053Z,23.10
2023-04-29T15:43:04.615Z,18.43
2023-04-29T15:44:06.240Z,23.20
2023-04-29T15:45:11.569Z,17.57
2023-04-29T15:46:13.536Z,15.83
2023-04-29T15:47:15.446Z,18.60
2023-04-29T15:48:17.177Z,17.10
2023-04-29T15:49:18.813Z,18.77
2023-04-29T15:50:20.925Z,16.00
2023-04-29T15:51:22.704Z,22.00
2023-04-29T15:52:24.274Z,17.30
2023-04-29T15:53:25.856Z,15.53
2023-04-29T15:54:27.475Z,19.27
2023-04-29T15:55:29.077Z,15.70
2023-04-29T15:56:30.799Z,14.73
2023-04-29T15:57:32.554Z,18.80
2023-04-29T15:58:34.594Z,12.80
2023-04-29T15:59:36.201Z,20.87
2023-04-29T16:00:38.960Z,17.43
2023-04-29T16:01:40.615Z,13.30
2023-04-29T16:02:42.247Z,13.93
2023-04-29T16:03:43.854Z,14.97
2023-04-29T16:04:45.534Z,14.93
2023-04-29T16:05:47.254Z,17.30
2023-04-29T16:06:48.993Z,13.40
2023-04-29T16:07:50.674Z,15.27
2023-04-29T16:08:52.261Z,12.73
2023-04-29T16:09:54.087Z,18.13
2023-04-29T16:10:56.024Z,16.20
2023-04-29T16:11:58.239Z,14.97
2023-04-29T16:13:00.703Z,14.03
2023-04-29T16:14:02.298Z,19.50
2023-04-29T16:15:05.285Z,17.37
2023-04-29T16:16:07.430Z,13.33
2023-04-29T16:17:09.112Z,16.80
2023-04-29T16:18:11.107Z,20.67
2023-04-29T16:19:12.912Z,15.37
2023-04-29T16:20:14.686Z,15.13
2023-04-29T16:21:16.853Z,13.90
2023-04-29T16:22:18.414Z,12.90
2023-04-29T16:23:19.978Z,12.73
2023-04-29T16:24:21.667Z,12.60
2023-04-29T16:25:23.485Z,16.67
2023-04-29T16:26:25.356Z,17.20
2023-04-29T16:27:29.833Z,15.63
2023-04-29T16:28:31.399Z,13.20
2023-04-29T16:29:32.957Z,12.37
2023-04-29T16:30:35.347Z,11.57
2023-04-29T16:31:37.477Z,13.57
2023-04-29T16:32:41.480Z,14.23
2023-04-29T16:33:43.157Z,17.43
2023-04-29T16:34:44.733Z,11.40
2023-04-29T16:35:46.856Z,10.83
2023-04-29T16:36:48.429Z,11.30
2023-04-29T16:37:50.014Z,10.83
2023-04-29T16:38:53.462Z,12.60
2023-04-29T16:39:55.378Z,14.80
2023-04-29T16:40:57.176Z,12.77
2023-04-29T16:41:59.588Z,9.37
2023-04-29T16:43:01.221Z,11.33
2023-04-29T16:44:02.891Z,13.93
2023-04-29T16:45:04.988Z,15.10
2023-04-29T16:46:06.710Z,15.83
2023-04-29T16:47:08.447Z,13.27
2023-04-29T16:48:10.101Z,11.40
2023-04-29T16:49:12.429Z,13.67
2023-04-29T16:50:14.584Z,15.43
2023-04-29T16:51:16.211Z,10.67
2023-04-29T16:52:18.091Z,11.30
2023-04-29T16:53:19.682Z,10.73
2023-04-29T16:54:24.565Z,15.87
2023-04-29T16:55:26.215Z,13.30
2023-04-29T16:56:27.833Z,13.70
2023-04-29T16:57:30.203Z,13.50
2023-04-29T16:58:31.755Z,12.80
2023-04-29T16:59:33.768Z,11.60
2023-04-29T17:00:35.353Z,11.53
2023-04-29T17:01:37.050Z,16.17
2023-04-29T17:02:40.315Z,14.60
2023-04-29T17:03:42.163Z,11.20
2023-04-29T17:04:43.933Z,11.33
2023-04-29T17:05:45.582Z,19.13
2023-04-29T17:06:47.351Z,10.13
2023-04-29T17:07:49.102Z,12.23
2023-04-29T17:08:51.546Z,13.57
2023-04-29T17:09:53.523Z,15.07
2023-04-29T17:10:55.802Z,13.87
2023-04-29T17:11:57.988Z,13.03
2023-04-29T17:12:59.680Z,12.07
2023-04-29T17:14:01.316Z,15.07
2023-04-29T17:15:03.377Z,15.70
2023-04-29T17:16:05.540Z,12.23
2023-04-29T17:17:07.315Z,13.77
2023-04-29T17:18:08.886Z,12.30
2023-04-29T17:19:10.669Z,17.80
2023-04-29T17:20:13.260Z,12.30
2023-04-29T17:21:15.290Z,12.10
2023-04-29T17:22:17.225Z,12.50
2023-04-29T17:23:18.867Z,11.80
2023-04-29T17:24:20.570Z,14.27
2023-04-29T17:25:22.656Z,11.93
2023-04-29T17:26:24.273Z,15.53
2023-04-29T17:27:25.953Z,11.47
2023-04-29T17:28:28.043Z,12.57
2023-04-29T17:29:29.669Z,10.10
2023-04-29T17:30:31.503Z,14.03
2023-04-29T17:31:44.934Z,13.90
2023-04-29T17:32:49.507Z,12.97
2023-04-29T17:34:04.990Z,13.47
2023-04-29T17:35:10.650Z,10.70
2023-04-29T17:36:12.244Z,17.83
2023-04-29T17:37:13.924Z,12.20
2023-04-29T17:38:15.628Z,11.83
2023-04-29T17:39:17.522Z,11.33
2023-04-29T17:40:19.216Z,13.47
2023-04-29T17:41:20.835Z,12.30
2023-04-29T17:42:22.494Z,10.67
2023-04-29T17:43:24.194Z,9.93
2023-04-29T17:44:25.870Z,13.93
2023-04-29T17:45:27.485Z,10.97
2023-04-29T17:46:30.562Z,10.07
2023-04-29T17:47:32.253Z,11.17
2023-04-29T17:48:33.920Z,10.77
2023-04-29T17:49:35.812Z,13.60
2023-04-29T17:50:40.470Z,13.13
2023-04-29T17:51:42.057Z,16.20
2023-04-29T17:52:43.642Z,10.40
2023-04-29T17:53:45.644Z,9.50
2023-04-29T17:54:48.433Z,11.50
2023-04-29T17:55:50.075Z,16.60
2023-04-29T17:56:51.631Z,9.97
2023-04-29T17:57:56.234Z,10.93
2023-04-29T17:58:57.875Z,14.30
2023-04-29T17:59:59.724Z,32.47
2023-04-29T18:01:05.204Z,13.83
2023-04-29T18:02:07.194Z,11.13
2023-04-29T18:03:08.955Z,11.53
2023-04-29T18:04:10.742Z,13.90
2023-04-29T18:05:12.465Z,11.07
2023-04-29T18:06:14.062Z,11.40
2023-04-29T18:07:15.664Z,8.80
2023-04-29T18:08:17.238Z,10.40
2023-04-29T18:09:18.798Z,11.07
2023-04-29T18:10:20.595Z,10.93
2023-04-29T18:11:22.233Z,13.30
2023-04-29T18:12:24.759Z,12.07
2023-04-29T18:13:27.335Z,16.10
2023-04-29T18:14:30.548Z,11.90
2023-04-29T18:15:32.455Z,13.47
2023-04-29T18:16:34.148Z,12.27
2023-04-29T18:17:35.850Z,13.07
2023-04-29T18:18:37.434Z,10.70
2023-04-29T18:19:39.004Z,9.93
2023-04-29T18:20:44.890Z,10.03
2023-04-29T18:21:46.513Z,9.13
2023-04-29T18:22:48.186Z,13.93
2023-04-29T18:23:50.459Z,11.47
2023-04-29T18:24:52.166Z,10.50
2023-04-29T18:25:53.896Z,10.83
2023-04-29T18:26:57.352Z,21.60
2023-04-29T18:28:13.670Z,12.03
2023-04-29T18:29:20.721Z,10.80
2023-04-29T18:30:22.412Z,8.77
2023-04-29T18:31:26.443Z,10.17
2023-04-29T18:32:28.180Z,12.13
2023-04-29T18:33:31.365Z,9.80
2023-04-29T18:34:33.145Z,9.23
2023-04-29T18:35:35.177Z,8.57
2023-04-29T18:36:36.994Z,9.23
2023-04-29T18:37:38.629Z,7.63
2023-04-29T18:38:40.366Z,10.00
2023-04-29T18:39:42.197Z,7.90
2023-04-29T18:40:44.438Z,9.23
2023-04-29T18:41:46.136Z,9.00
2023-04-29T18:42:47.820Z,8.53
2023-04-29T18:43:49.422Z,10.27
2023-04-29T18:44:51.372Z,10.13
2023-04-29T18:45:53.068Z,9.37
2023-04-29T18:46:54.700Z,9.97
2023-04-29T18:47:56.311Z,9.77
2023-04-29T18:48:57.942Z,8.57
2023-04-29T18:49:59.705Z,12.10
2023-04-29T18:51:04.035Z,18.43
2023-04-29T18:52:05.722Z,14.90
2023-04-29T18:53:07.965Z,13.87
2023-04-29T18:54:09.546Z,11.70
2023-04-29T18:55:11.188Z,10.10
2023-04-29T18:56:12.857Z,9.83
2023-04-29T18:57:14.659Z,13.90
2023-04-29T18:58:16.399Z,14.60
2023-04-29T18:59:21.345Z,10.10
2023-04-29T19:00:22.943Z,13.17
2023-04-29T19:01:24.622Z,13.87
2023-04-29T19:02:26.329Z,12.40
2023-04-29T19:03:27.932Z,15.57
2023-04-29T19:04:29.530Z,12.60
2023-04-29T19:05:31.628Z,9.10
2023-04-29T19:06:33.375Z,11.37
2023-04-29T19:07:35.126Z,12.70
2023-04-29T19:08:36.789Z,9.83
2023-04-29T19:09:38.360Z,11.17
2023-04-29T19:10:39.936Z,10.70
2023-04-29T19:11:41.628Z,9.20
2023-04-29T19:12:43.253Z,15.13
2023-04-29T19:13:45.024Z,12.17
2023-04-29T19:14:46.609Z,13.27
2023-04-29T19:15:50.808Z,13.63
2023-04-29T19:16:52.874Z,12.30
2023-04-29T19:17:55.032Z,11.47
2023-04-29T19:18:56.701Z,12.43
2023-04-29T19:19:58.272Z,15.10
2023-04-29T19:21:00.439Z,13.80
2023-04-29T19:22:02.235Z,17.00
2023-04-29T19:23:03.914Z,11.30
2023-04-29T19:24:05.855Z,13.67
2023-04-29T19:25:07.844Z,11.40
2023-04-29T19:26:09.996Z,14.30
2023-04-29T19:27:12.073Z,12.20
2023-04-29T19:28:14.012Z,12.67
2023-04-29T19:29:16.039Z,10.80
2023-04-29T19:30:18.354Z,14.67
2023-04-29T19:31:20.044Z,15.67
2023-04-29T19:32:21.922Z,12.57
2023-04-29T19:33:23.530Z,11.03
2023-04-29T19:34:25.281Z,11.23
2023-04-29T19:35:26.955Z,13.07
2023-04-29T19:36:28.826Z,15.70
2023-04-29T19:37:30.505Z,11.30
2023-04-29T19:38:32.350Z,9.33
2023-04-29T19:39:33.923Z,11.20
2023-04-29T19:40:35.605Z,10.20
2023-04-29T19:41:37.209Z,13.90
2023-04-29T19:42:39.530Z,12.07
2023-04-29T19:43:41.337Z,13.53
2023-04-29T19:44:43.067Z,10.18
2023-04-29T19:45:44.657Z,12.93
2023-04-29T19:46:49.409Z,11.13
2023-04-29T19:47:51.231Z,10.70
2023-04-29T19:48:52.873Z,11.88
2023-04-29T19:49:54.714Z,16.30
2023-04-29T19:50:59.477Z,11.43
2023-04-29T19:52:02.055Z,12.70
2023-04-29T19:53:03.913Z,9.93
2023-04-29T19:54:05.570Z,13.63
2023-04-29T19:55:08.925Z,11.63
2023-04-29T19:56:10.736Z,11.70
2023-04-29T19:57:12.319Z,10.27
2023-04-29T19:58:13.890Z,12.60
2023-04-29T19:59:15.592Z,9.82
2023-04-29T20:00:17.398Z,10.70
2023-04-29T20:01:19.080Z,10.35
2023-04-29T20:02:20.799Z,10.90
2023-04-29T20:03:22.767Z,11.13
2023-04-29T20:04:25.454Z,9.18
2023-04-29T20:05:28.283Z,15.18
2023-04-29T20:06:29.911Z,11.07
2023-04-29T20:07:31.605Z,13.98
2023-04-29T20:08:33.421Z,12.55
2023-04-29T20:09:35.189Z,12.00
2023-04-29T20:10:36.944Z,18.38
2023-04-29T20:11:38.613Z,14.00
2023-04-29T20:12:40.448Z,8.68
2023-04-29T20:13:42.102Z,10.27
2023-04-29T20:14:43.724Z,10.02
2023-04-29T20:15:45.562Z,14.18
2023-04-29T20:16:47.298Z,11.07
2023-04-29T20:17:49.026Z,12.07
2023-04-29T20:18:50.741Z,12.10
2023-04-29T20:19:52.709Z,13.45
2023-04-29T20:20:54.598Z,9.75
2023-04-29T20:21:56.267Z,9.98
2023-04-29T20:23:00.273Z,12.57
2023-04-29T20:24:01.956Z,11.73
2023-04-29T20:25:04.190Z,11.60
2023-04-29T20:26:06.105Z,13.00
2023-04-29T20:27:08.174Z,14.55
2023-04-29T20:28:09.835Z,9.25
2023-04-29T20:29:11.450Z,11.40
2023-04-29T20:30:13.991Z,12.73
2023-04-29T20:31:15.968Z,11.40
2023-04-29T20:32:17.886Z,12.43
2023-04-29T20:33:19.740Z,11.63
2023-04-29T20:34:21.430Z,14.52
2023-04-29T20:35:23.373Z,11.10
2023-04-29T20:36:25.045Z,10.10
2023-04-29T20:37:26.814Z,11.10
2023-04-29T20:38:29.313Z,10.60
2023-04-29T20:39:30.995Z,10.20
2023-04-29T20:40:33.300Z,12.02
2023-04-29T20:41:35.409Z,12.95
2023-04-29T20:42:37.046Z,12.13
2023-04-29T20:43:38.867Z,13.02
2023-04-29T20:44:40.922Z,10.45
2023-04-29T20:45:42.886Z,12.82
2023-04-29T20:46:46.092Z,15.48
2023-04-29T20:47:47.958Z,15.75
2023-04-29T20:48:49.602Z,12.80
2023-04-29T20:49:51.534Z,10.18
2023-04-29T20:50:53.354Z,11.82
2023-04-29T20:51:54.923Z,19.20
2023-04-29T20:52:56.643Z,10.25
2023-04-29T20:53:58.680Z,8.85
2023-04-29T20:55:00.952Z,11.90
2023-04-29T20:56:02.570Z,13.00
2023-04-29T20:57:05.575Z,14.30
2023-04-29T20:58:07.289Z,13.85
2023-04-29T20:59:08.920Z,12.68
2023-04-29T21:00:11.392Z,18.10
2023-04-29T21:01:13.121Z,9.35
2023-04-29T21:02:14.981Z,15.55
2023-04-29T21:03:16.748Z,13.02
2023-04-29T21:04:18.499Z,11.15
2023-04-29T21:05:20.921Z,8.75
2023-04-29T21:06:22.811Z,12.20
2023-04-29T21:07:24.516Z,15.13
2023-04-29T21:08:26.205Z,10.18
2023-04-29T21:09:27.844Z,10.50
2023-04-29T21:10:29.489Z,12.60
2023-04-29T21:11:31.140Z,16.65
2023-04-29T21:12:32.748Z,10.18
2023-04-29T21:13:34.404Z,11.77
2023-04-29T21:14:37.317Z,11.07
2023-04-29T21:15:39.130Z,14.85
2023-04-29T21:16:41.148Z,16.33
2023-04-29T21:17:42.741Z,12.75
2023-04-29T21:18:44.974Z,15.40
2023-04-29T21:19:46.618Z,22.60
2023-04-29T21:20:48.247Z,16.38
2023-04-29T21:21:49.877Z,12.43
2023-04-29T21:22:51.532Z,17.73
2023-04-29T21:23:53.132Z,13.00
2023-04-29T21:24:54.747Z,13.40
2023-04-29T21:25:56.317Z,13.43
2023-04-29T21:26:58.044Z,14.65
2023-04-29T21:27:59.694Z,15.65
2023-04-29T21:29:01.321Z,12.30
2023-04-29T21:30:04.900Z,11.90
2023-04-29T21:31:06.852Z,17.67
2023-04-29T21:32:08.988Z,12.65
2023-04-29T21:33:10.754Z,14.02
2023-04-29T21:34:12.406Z,12.13
2023-04-29T21:35:14.013Z,12.52
2023-04-29T21:36:16.000Z,10.65
2023-04-29T21:37:17.801Z,13.02
2023-04-29T21:38:19.420Z,10.88
2023-04-29T21:39:21.055Z,16.90
2023-04-29T21:40:23.680Z,9.23
2023-04-29T21:41:28.212Z,10.70
2023-04-29T21:42:30.579Z,7.25
2023-04-29T21:43:33.374Z,11.30
2023-04-29T21:44:35.261Z,13.73
2023-04-29T21:45:37.461Z,17.13
2023-04-29T21:46:39.706Z,12.55
2023-04-29T21:47:42.035Z,10.05
2023-04-29T21:48:44.148Z,8.05
2023-04-29T21:49:45.782Z,8.45
2023-04-29T21:50:48.025Z,9.50
2023-04-29T21:51:50.810Z,7.80
2023-04-29T21:52:52.501Z,8.88
2023-04-29T21:53:54.123Z,6.13
2023-04-29T21:54:55.991Z,8.70
2023-04-29T21:55:57.591Z,6.55
2023-04-29T21:56:59.413Z,8.50
2023-04-29T21:58:01.047Z,8.45
2023-04-29T21:59:02.682Z,4.70
2023-04-29T22:00:19.033Z,6.85
2023-04-29T22:01:27.240Z,5.18
2023-04-29T22:02:38.010Z,4.55
2023-04-29T22:03:39.791Z,4.65
2023-04-29T22:04:41.827Z,6.53
2023-04-29T22:05:43.952Z,6.90
2023-04-29T22:06:45.908Z,8.43
2023-04-29T22:07:47.682Z,8.77
2023-04-29T22:08:49.724Z,8.63
2023-04-29T22:09:51.316Z,6.55
2023-04-29T22:10:52.987Z,9.25
2023-04-29T22:11:54.547Z,9.65
2023-04-29T22:12:56.636Z,7.45
2023-04-29T22:13:58.333Z,7.90
2023-04-29T22:14:59.973Z,13.32
2023-04-29T22:16:01.595Z,6.75
2023-04-29T22:17:03.235Z,9.25
2023-04-29T22:18:04.875Z,8.57
2023-04-29T22:19:07.134Z,8.27
2023-04-29T22:20:13.191Z,8.23
2023-04-29T22:21:15.317Z,10.85
2023-04-29T22:22:16.921Z,7.95
2023-04-29T22:23:18.583Z,13.27
2023-04-29T22:24:20.182Z,13.13
2023-04-29T22:25:22.131Z,8.23
2023-04-29T22:26:25.372Z,10.90
2023-04-29T22:27:26.940Z,6.03
2023-04-29T22:28:28.622Z,7.20
2023-04-29T22:29:30.316Z,7.85
2023-04-29T22:30:32.028Z,7.18
2023-04-29T22:31:33.663Z,9.40
2023-04-29T22:32:35.439Z,6.47
2023-04-29T22:33:37.135Z,8.05
2023-04-29T22:34:40.129Z,11.48
2023-04-29T22:35:41.781Z,14.48
2023-04-29T22:36:43.346Z,6.85
2023-04-29T22:37:44.971Z,8.95
2023-04-29T22:38:46.559Z,6.57
2023-04-29T22:39:48.453Z,11.98
2023-04-29T22:40:51.115Z,8.05
2023-04-29T22:41:52.695Z,6.57
2023-04-29T22:42:54.299Z,5.72
2023-04-29T22:43:57.371Z,9.50
2023-04-29T22:44:59.454Z,13.52
2023-04-29T22:46:01.136Z,5.15
2023-04-29T22:47:03.183Z,13.13
2023-04-29T22:48:05.286Z,8.32
2023-04-29T22:49:06.953Z,9.98
2023-04-29T22:50:08.932Z,7.97
2023-04-29T22:51:10.529Z,6.38
2023-04-29T22:52:12.180Z,5.50
2023-04-29T22:53:20.587Z,5.75
2023-04-29T22:54:22.187Z,5.63
2023-04-29T22:55:23.791Z,8.30
2023-04-29T22:56:25.396Z,7.05
2023-04-29T22:57:27.171Z,6.93
2023-04-29T22:58:28.806Z,6.40
2023-04-29T22:59:30.701Z,5.95
2023-04-29T23:00:32.889Z,6.78
2023-04-29T23:01:34.495Z,7.43
2023-04-29T23:02:36.156Z,7.15
2023-04-29T23:03:38.636Z,7.40
2023-04-29T23:04:40.285Z,5.18
2023-04-29T23:05:41.896Z,6.18
2023-04-29T23:06:43.642Z,5.95
2023-04-29T23:07:45.302Z,5.95
2023-04-29T23:08:47.066Z,6.07
2023-04-29T23:09:49.566Z,6.82
2023-04-29T23:10:51.187Z,7.10
2023-04-29T23:11:52.778Z,6.07
2023-04-29T23:12:54.339Z,7.00
2023-04-29T23:13:55.901Z,10.77
2023-04-29T23:14:57.544Z,6.28
2023-04-29T23:16:02.148Z,14.57
2023-04-29T23:17:03.734Z,8.32
2023-04-29T23:18:05.507Z,6.00
2023-04-29T23:19:07.476Z,7.22
2023-04-29T23:20:09.626Z,5.43
2023-04-29T23:21:11.368Z,4.88
2023-04-29T23:22:12.977Z,6.47
2023-04-29T23:23:14.738Z,7.07
2023-04-29T23:24:16.331Z,14.80
2023-04-29T23:25:17.958Z,9.70
2023-04-29T23:26:19.611Z,6.13
2023-04-29T23:27:21.231Z,6.45
2023-04-29T23:28:24.521Z,10.32
2023-04-29T23:29:26.144Z,6.85
2023-04-29T23:30:27.750Z,7.57
2023-04-29T23:31:29.405Z,6.75
2023-04-29T23:32:31.056Z,5.82
2023-04-29T23:33:32.707Z,6.38
2023-04-29T23:34:34.292Z,6.65
2023-04-29T23:35:35.931Z,5.72
2023-04-29T23:36:37.763Z,6.55
2023-04-29T23:37:39.529Z,5.13
2023-04-29T23:38:41.752Z,5.07
2023-04-29T23:39:43.314Z,9.70
2023-04-29T23:40:46.309Z,5.28
2023-04-29T23:41:47.974Z,5.88
2023-04-29T23:42:49.617Z,9.40
2023-04-29T23:43:51.198Z,5.85
2023-04-29T23:44:52.949Z,10.15
2023-04-29T23:45:54.577Z,6.53
2023-04-29T23:46:56.188Z,5.93
2023-04-29T23:47:57.795Z,5.85
2023-04-29T23:48:59.349Z,5.70
2023-04-29T23:50:00.913Z,5.82
2023-04-29T23:51:02.528Z,12.55
2023-04-29T23:52:05.644Z,6.85
2023-04-29T23:53:07.241Z,6.75
2023-04-29T23:54:08.863Z,6.10
2023-04-29T23:55:10.501Z,7.70
2023-04-29T23:56:12.925Z,5.35
2023-04-29T23:57:14.553Z,12.38
2023-04-29T23:58:16.145Z,6.50
2023-04-29T23:59:17.699Z,6.60
